sensor_id;sensor_type;location;lat;lon;timestamp;temperature;humidity
8338;DHT22;4206;48.634;9.516;2023-03-08T00:02:18;4.10;99.90
8338;DHT22;4206;48.634;9.516;2023-03-08T00:04:46;4.10;99.90
8338;DHT22;4206;48.634;9.516;2023-03-08T00:07:13;4.20;99.90
8338;DHT22;4206;48.634;9.516;2023-03-08T00:09:40;4.20;99.90
8338;DHT22;4206;48.634;9.516;2023-03-08T00:12:07;4.10;99.90
8338;DHT22;4206;48.634;9.516;2023-03-08T00:14:36;4.00;99.90
8338;DHT22;4206;48.634;9.516;2023-03-08T00:17:03;4.10;99.90
8338;DHT22;4206;48.634;9.516;2023-03-08T00:19:30;4.10;99.90
8338;DHT22;4206;48.634;9.516;2023-03-08T00:21:57;4.10;99.90
8338;DHT22;4206;48.634;9.516;2023-03-08T00:24:25;4.10;99.90
8338;DHT22;4206;48.634;9.516;2023-03-08T00:26:51;4.10;99.90
8338;DHT22;4206;48.634;9.516;2023-03-08T00:29:18;4.10;99.90
8338;DHT22;4206;48.634;9.516;2023-03-08T00:31:45;4.10;99.90
8338;DHT22;4206;48.634;9.516;2023-03-08T00:34:12;4.10;99.90
8338;DHT22;4206;48.634;9.516;2023-03-08T00:36:40;4.10;99.90
8338;DHT22;4206;48.634;9.516;2023-03-08T00:39:07;4.20;99.90
8338;DHT22;4206;48.634;9.516;2023-03-08T00:41:34;4.00;99.90
8338;DHT22;4206;48.634;9.516;2023-03-08T00:44:01;4.10;99.90
8338;DHT22;4206;48.634;9.516;2023-03-08T00:46:28;4.10;99.90
8338;DHT22;4206;48.634;9.516;2023-03-08T00:48:55;4.20;99.90
8338;DHT22;4206;48.634;9.516;2023-03-08T00:51:22;4.20;99.90
8338;DHT22;4206;48.634;9.516;2023-03-08T00:53:49;4.20;99.90
8338;DHT22;4206;48.634;9.516;2023-03-08T00:56:16;4.20;99.90
8338;DHT22;4206;48.634;9.516;2023-03-08T00:58:43;4.20;99.90
8338;DHT22;4206;48.634;9.516;2023-03-08T01:01:15;4.20;99.90
8338;DHT22;4206;48.634;9.516;2023-03-08T01:03:42;4.20;99.90
8338;DHT22;4206;48.634;9.516;2023-03-08T01:06:12;4.20;99.90
8338;DHT22;4206;48.634;9.516;2023-03-08T01:08:39;4.20;99.90
8338;DHT22;4206;48.634;9.516;2023-03-08T01:11:15;4.20;99.90
8338;DHT22;4206;48.634;9.516;2023-03-08T01:13:42;4.10;99.90
8338;DHT22;4206;48.634;9.516;2023-03-08T01:16:19;4.10;99.90
8338;DHT22;4206;48.634;9.516;2023-03-08T01:18:47;4.00;99.90
8338;DHT22;4206;48.634;9.516;2023-03-08T01:21:14;4.00;99.90
8338;DHT22;4206;48.634;9.516;2023-03-08T01:23:41;4.00;99.90
8338;DHT22;4206;48.634;9.516;2023-03-08T01:26:12;3.90;99.90
8338;DHT22;4206;48.634;9.516;2023-03-08T01:28:39;3.90;99.90
8338;DHT22;4206;48.634;9.516;2023-03-08T01:31:10;3.80;99.90
8338;DHT22;4206;48.634;9.516;2023-03-08T01:33:38;3.80;99.90
8338;DHT22;4206;48.634;9.516;2023-03-08T01:36:07;3.80;99.90
8338;DHT22;4206;48.634;9.516;2023-03-08T01:38:34;3.80;99.90
8338;DHT22;4206;48.634;9.516;2023-03-08T01:41:03;3.80;99.90
8338;DHT22;4206;48.634;9.516;2023-03-08T01:43:32;3.90;99.90
8338;DHT22;4206;48.634;9.516;2023-03-08T01:48:32;3.90;99.90
8338;DHT22;4206;48.634;9.516;2023-03-08T01:51:02;3.90;99.90
8338;DHT22;4206;48.634;9.516;2023-03-08T01:53:31;3.90;99.90
8338;DHT22;4206;48.634;9.516;2023-03-08T01:55:58;4.00;99.90
8338;DHT22;4206;48.634;9.516;2023-03-08T01:58:25;3.80;99.90
8338;DHT22;4206;48.634;9.516;2023-03-08T02:00:52;3.70;99.90
8338;DHT22;4206;48.634;9.516;2023-03-08T02:03:20;3.60;99.90
8338;DHT22;4206;48.634;9.516;2023-03-08T02:05:48;3.50;99.90
8338;DHT22;4206;48.634;9.516;2023-03-08T02:08:16;3.50;99.90
8338;DHT22;4206;48.634;9.516;2023-03-08T02:10:43;3.60;99.90
8338;DHT22;4206;48.634;9.516;2023-03-08T02:13:10;3.70;99.90
8338;DHT22;4206;48.634;9.516;2023-03-08T02:15:38;3.60;99.90
8338;DHT22;4206;48.634;9.516;2023-03-08T02:18:05;3.50;99.90
8338;DHT22;4206;48.634;9.516;2023-03-08T02:20:35;3.30;99.90
8338;DHT22;4206;48.634;9.516;2023-03-08T02:23:18;3.30;99.90
8338;DHT22;4206;48.634;9.516;2023-03-08T02:25:51;3.20;99.90
8338;DHT22;4206;48.634;9.516;2023-03-08T02:28:21;3.10;99.90
8338;DHT22;4206;48.634;9.516;2023-03-08T02:30:49;3.00;99.90
8338;DHT22;4206;48.634;9.516;2023-03-08T02:33:16;2.90;99.90
8338;DHT22;4206;48.634;9.516;2023-03-08T02:35:44;2.80;99.90
8338;DHT22;4206;48.634;9.516;2023-03-08T02:38:14;2.70;99.90
8338;DHT22;4206;48.634;9.516;2023-03-08T02:40:41;2.60;99.90
8338;DHT22;4206;48.634;9.516;2023-03-08T02:43:08;2.60;99.90
8338;DHT22;4206;48.634;9.516;2023-03-08T02:45:35;2.60;99.90
8338;DHT22;4206;48.634;9.516;2023-03-08T02:48:04;2.50;99.90
8338;DHT22;4206;48.634;9.516;2023-03-08T02:50:31;2.50;99.90
8338;DHT22;4206;48.634;9.516;2023-03-08T02:52:58;2.40;99.90
8338;DHT22;4206;48.634;9.516;2023-03-08T02:55:25;2.40;99.90
8338;DHT22;4206;48.634;9.516;2023-03-08T02:57:52;2.40;99.90
8338;DHT22;4206;48.634;9.516;2023-03-08T03:00:19;2.40;99.90
8338;DHT22;4206;48.634;9.516;2023-03-08T03:02:47;2.40;99.90
8338;DHT22;4206;48.634;9.516;2023-03-08T03:05:14;2.40;99.90
8338;DHT22;4206;48.634;9.516;2023-03-08T03:07:41;2.50;99.90
8338;DHT22;4206;48.634;9.516;2023-03-08T03:10:10;2.50;99.90
8338;DHT22;4206;48.634;9.516;2023-03-08T03:12:38;2.60;99.90
8338;DHT22;4206;48.634;9.516;2023-03-08T03:15:06;2.60;99.90
8338;DHT22;4206;48.634;9.516;2023-03-08T03:17:33;2.60;99.90
8338;DHT22;4206;48.634;9.516;2023-03-08T03:20:03;2.60;99.90
8338;DHT22;4206;48.634;9.516;2023-03-08T03:22:32;2.70;99.90
8338;DHT22;4206;48.634;9.516;2023-03-08T03:24:59;3.30;99.90
8338;DHT22;4206;48.634;9.516;2023-03-08T03:27:25;3.40;99.90
8338;DHT22;4206;48.634;9.516;2023-03-08T03:29:52;3.50;99.90
8338;DHT22;4206;48.634;9.516;2023-03-08T03:32:21;3.50;99.90
8338;DHT22;4206;48.634;9.516;2023-03-08T03:34:48;3.50;99.90
8338;DHT22;4206;48.634;9.516;2023-03-08T03:37:15;3.50;99.90
8338;DHT22;4206;48.634;9.516;2023-03-08T03:39:42;3.50;99.90
8338;DHT22;4206;48.634;9.516;2023-03-08T03:42:09;3.50;99.90
8338;DHT22;4206;48.634;9.516;2023-03-08T03:44:36;3.40;99.90
8338;DHT22;4206;48.634;9.516;2023-03-08T03:47:03;3.40;99.90
8338;DHT22;4206;48.634;9.516;2023-03-08T03:49:30;3.30;99.90
8338;DHT22;4206;48.634;9.516;2023-03-08T03:51:56;3.30;99.90
8338;DHT22;4206;48.634;9.516;2023-03-08T03:54:23;3.30;99.90
8338;DHT22;4206;48.634;9.516;2023-03-08T03:56:50;3.30;99.90
8338;DHT22;4206;48.634;9.516;2023-03-08T03:59:17;3.30;99.90
8338;DHT22;4206;48.634;9.516;2023-03-08T05:02:23;3.70;99.90
8338;DHT22;4206;48.634;9.516;2023-03-08T05:04:50;3.70;99.90
8338;DHT22;4206;48.634;9.516;2023-03-08T05:07:17;3.70;99.90
8338;DHT22;4206;48.634;9.516;2023-03-08T05:09:43;3.70;99.90
8338;DHT22;4206;48.634;9.516;2023-03-08T05:12:10;3.70;99.90
8338;DHT22;4206;48.634;9.516;2023-03-08T05:14:37;3.70;99.90
8338;DHT22;4206;48.634;9.516;2023-03-08T05:17:04;3.70;99.90
8338;DHT22;4206;48.634;9.516;2023-03-08T05:19:30;3.70;99.90
8338;DHT22;4206;48.634;9.516;2023-03-08T05:21:57;3.70;99.90
8338;DHT22;4206;48.634;9.516;2023-03-08T05:24:24;3.70;99.90
8338;DHT22;4206;48.634;9.516;2023-03-08T05:26:52;3.70;99.90
8338;DHT22;4206;48.634;9.516;2023-03-08T05:29:19;3.70;99.90
8338;DHT22;4206;48.634;9.516;2023-03-08T05:31:48;3.70;99.90
8338;DHT22;4206;48.634;9.516;2023-03-08T05:34:15;3.60;99.90
8338;DHT22;4206;48.634;9.516;2023-03-08T05:36:42;3.60;99.90
8338;DHT22;4206;48.634;9.516;2023-03-08T05:39:10;3.90;99.90
8338;DHT22;4206;48.634;9.516;2023-03-08T05:41:36;3.80;99.90
8338;DHT22;4206;48.634;9.516;2023-03-08T05:44:03;4.00;99.90
8338;DHT22;4206;48.634;9.516;2023-03-08T05:46:30;4.10;99.90
8338;DHT22;4206;48.634;9.516;2023-03-08T05:48:57;4.10;99.90
8338;DHT22;4206;48.634;9.516;2023-03-08T05:51:24;4.10;99.90
8338;DHT22;4206;48.634;9.516;2023-03-08T05:53:51;4.00;99.90
8338;DHT22;4206;48.634;9.516;2023-03-08T05:56:20;3.90;99.90
8338;DHT22;4206;48.634;9.516;2023-03-08T05:58:47;4.00;99.90
8338;DHT22;4206;48.634;9.516;2023-03-08T06:01:17;4.00;99.90
8338;DHT22;4206;48.634;9.516;2023-03-08T06:03:46;4.00;99.90
8338;DHT22;4206;48.634;9.516;2023-03-08T06:06:13;4.00;99.90
8338;DHT22;4206;48.634;9.516;2023-03-08T06:08:41;4.00;99.90
8338;DHT22;4206;48.634;9.516;2023-03-08T06:11:08;4.20;99.90
8338;DHT22;4206;48.634;9.516;2023-03-08T06:13:35;4.20;99.90
8338;DHT22;4206;48.634;9.516;2023-03-08T06:16:04;4.30;99.90
8338;DHT22;4206;48.634;9.516;2023-03-08T06:18:31;4.40;99.90
8338;DHT22;4206;48.634;9.516;2023-03-08T06:21:01;4.40;99.90
8338;DHT22;4206;48.634;9.516;2023-03-08T06:23:29;4.40;99.90
8338;DHT22;4206;48.634;9.516;2023-03-08T06:25:57;4.50;99.90
8338;DHT22;4206;48.634;9.516;2023-03-08T06:28:25;4.40;99.90
8338;DHT22;4206;48.634;9.516;2023-03-08T06:30:53;4.40;99.90
8338;DHT22;4206;48.634;9.516;2023-03-08T06:33:24;4.40;99.90
8338;DHT22;4206;48.634;9.516;2023-03-08T06:35:57;4.50;99.90
8338;DHT22;4206;48.634;9.516;2023-03-08T06:38:25;4.50;99.90
8338;DHT22;4206;48.634;9.516;2023-03-08T06:40:55;4.50;99.90
8338;DHT22;4206;48.634;9.516;2023-03-08T06:43:22;4.50;99.90
8338;DHT22;4206;48.634;9.516;2023-03-08T06:45:48;4.50;99.90
8338;DHT22;4206;48.634;9.516;2023-03-08T06:48:16;4.50;99.90
8338;DHT22;4206;48.634;9.516;2023-03-08T06:50:43;4.50;99.90
8338;DHT22;4206;48.634;9.516;2023-03-08T06:53:11;4.70;99.90
8338;DHT22;4206;48.634;9.516;2023-03-08T06:55:39;4.80;99.90
8338;DHT22;4206;48.634;9.516;2023-03-08T06:58:07;4.90;99.90
8338;DHT22;4206;48.634;9.516;2023-03-08T07:00:34;4.90;99.90
8338;DHT22;4206;48.634;9.516;2023-03-08T07:03:01;5.00;99.90
8338;DHT22;4206;48.634;9.516;2023-03-08T07:05:28;5.00;99.90
8338;DHT22;4206;48.634;9.516;2023-03-08T07:07:55;5.10;99.90
8338;DHT22;4206;48.634;9.516;2023-03-08T07:10:22;5.10;99.90
8338;DHT22;4206;48.634;9.516;2023-03-08T07:12:50;5.20;99.90
8338;DHT22;4206;48.634;9.516;2023-03-08T07:15:20;5.20;99.90
8338;DHT22;4206;48.634;9.516;2023-03-08T07:17:49;5.20;99.90
8338;DHT22;4206;48.634;9.516;2023-03-08T07:20:18;5.20;99.90
8338;DHT22;4206;48.634;9.516;2023-03-08T07:22:45;5.40;99.90
8338;DHT22;4206;48.634;9.516;2023-03-08T07:25:14;5.40;99.90
8338;DHT22;4206;48.634;9.516;2023-03-08T07:27:41;5.50;99.90
8338;DHT22;4206;48.634;9.516;2023-03-08T07:30:10;5.50;99.90
8338;DHT22;4206;48.634;9.516;2023-03-08T07:32:38;5.50;99.90
8338;DHT22;4206;48.634;9.516;2023-03-08T07:35:07;5.50;99.90
8338;DHT22;4206;48.634;9.516;2023-03-08T07:37:35;5.60;99.90
8338;DHT22;4206;48.634;9.516;2023-03-08T07:40:03;5.60;99.90
8338;DHT22;4206;48.634;9.516;2023-03-08T07:42:30;5.70;99.90
8338;DHT22;4206;48.634;9.516;2023-03-08T07:44:57;5.80;99.90
8338;DHT22;4206;48.634;9.516;2023-03-08T07:47:24;5.70;99.90
8338;DHT22;4206;48.634;9.516;2023-03-08T07:49:51;5.90;99.90
8338;DHT22;4206;48.634;9.516;2023-03-08T07:52:18;5.90;99.90
8338;DHT22;4206;48.634;9.516;2023-03-08T07:54:45;5.90;99.90
8338;DHT22;4206;48.634;9.516;2023-03-08T07:57:13;6.00;99.90
8338;DHT22;4206;48.634;9.516;2023-03-08T07:59:41;6.10;99.90
8338;DHT22;4206;48.634;9.516;2023-03-08T08:02:11;6.10;99.90
8338;DHT22;4206;48.634;9.516;2023-03-08T08:04:39;6.10;99.90
8338;DHT22;4206;48.634;9.516;2023-03-08T08:07:10;6.10;99.90
8338;DHT22;4206;48.634;9.516;2023-03-08T08:09:38;6.10;99.90
8338;DHT22;4206;48.634;9.516;2023-03-08T08:12:05;6.00;99.90
8338;DHT22;4206;48.634;9.516;2023-03-08T08:14:32;6.00;99.90
8338;DHT22;4206;48.634;9.516;2023-03-08T08:16:59;6.10;99.90
8338;DHT22;4206;48.634;9.516;2023-03-08T08:19:26;6.30;99.90
8338;DHT22;4206;48.634;9.516;2023-03-08T08:21:53;6.30;99.90
8338;DHT22;4206;48.634;9.516;2023-03-08T08:24:20;6.30;99.90
8338;DHT22;4206;48.634;9.516;2023-03-08T08:26:47;6.40;99.90
8338;DHT22;4206;48.634;9.516;2023-03-08T08:29:13;6.50;99.90
8338;DHT22;4206;48.634;9.516;2023-03-08T08:31:40;6.60;99.90
8338;DHT22;4206;48.634;9.516;2023-03-08T08:34:07;6.50;99.90
8338;DHT22;4206;48.634;9.516;2023-03-08T08:36:34;6.50;99.90
8338;DHT22;4206;48.634;9.516;2023-03-08T08:39:01;6.70;99.90
8338;DHT22;4206;48.634;9.516;2023-03-08T08:41:28;6.60;99.90
8338;DHT22;4206;48.634;9.516;2023-03-08T08:43:58;6.70;99.90
8338;DHT22;4206;48.634;9.516;2023-03-08T08:46:26;6.70;99.90
8338;DHT22;4206;48.634;9.516;2023-03-08T08:48:54;6.70;99.90
8338;DHT22;4206;48.634;9.516;2023-03-08T08:51:21;6.80;99.90
8338;DHT22;4206;48.634;9.516;2023-03-08T08:53:49;6.80;99.90
8338;DHT22;4206;48.634;9.516;2023-03-08T08:56:20;6.90;99.90
8338;DHT22;4206;48.634;9.516;2023-03-08T08:58:58;7.00;99.90
8338;DHT22;4206;48.634;9.516;2023-03-08T09:01:28;7.10;99.90
8338;DHT22;4206;48.634;9.516;2023-03-08T09:03:55;7.10;99.90
8338;DHT22;4206;48.634;9.516;2023-03-08T09:06:23;6.90;99.90
8338;DHT22;4206;48.634;9.516;2023-03-08T09:08:52;7.00;99.90
8338;DHT22;4206;48.634;9.516;2023-03-08T09:11:21;7.00;99.90
8338;DHT22;4206;48.634;9.516;2023-03-08T09:13:48;7.20;99.90
8338;DHT22;4206;48.634;9.516;2023-03-08T09:16:19;7.30;99.90
8338;DHT22;4206;48.634;9.516;2023-03-08T09:18:47;7.40;99.90
8338;DHT22;4206;48.634;9.516;2023-03-08T09:21:15;7.40;99.90
8338;DHT22;4206;48.634;9.516;2023-03-08T09:23:42;7.60;99.90
8338;DHT22;4206;48.634;9.516;2023-03-08T09:26:10;7.60;99.90
8338;DHT22;4206;48.634;9.516;2023-03-08T09:28:37;7.70;99.90
8338;DHT22;4206;48.634;9.516;2023-03-08T09:31:06;7.70;99.90
8338;DHT22;4206;48.634;9.516;2023-03-08T09:33:40;7.60;99.90
8338;DHT22;4206;48.634;9.516;2023-03-08T09:36:07;7.60;99.90
8338;DHT22;4206;48.634;9.516;2023-03-08T09:38:34;7.60;99.90
8338;DHT22;4206;48.634;9.516;2023-03-08T09:46:37;7.80;99.90
8338;DHT22;4206;48.634;9.516;2023-03-08T09:49:13;7.80;99.90
8338;DHT22;4206;48.634;9.516;2023-03-08T09:51:44;7.70;99.90
8338;DHT22;4206;48.634;9.516;2023-03-08T09:54:17;7.80;99.90
8338;DHT22;4206;48.634;9.516;2023-03-08T09:56:47;7.80;99.90
8338;DHT22;4206;48.634;9.516;2023-03-08T09:59:33;7.80;99.90
8338;DHT22;4206;48.634;9.516;2023-03-08T10:07:55;8.00;99.90
8338;DHT22;4206;48.634;9.516;2023-03-08T10:13:27;8.10;99.90
8338;DHT22;4206;48.634;9.516;2023-03-08T10:16:03;8.20;99.90
8338;DHT22;4206;48.634;9.516;2023-03-08T10:21:11;8.40;99.90
8338;DHT22;4206;48.634;9.516;2023-03-08T10:23:39;8.20;99.90
8338;DHT22;4206;48.634;9.516;2023-03-08T10:26:10;8.40;99.90
8338;DHT22;4206;48.634;9.516;2023-03-08T10:28:38;8.40;99.90
8338;DHT22;4206;48.634;9.516;2023-03-08T10:31:22;8.40;99.90
8338;DHT22;4206;48.634;9.516;2023-03-08T10:33:53;8.50;99.90
8338;DHT22;4206;48.634;9.516;2023-03-08T10:36:24;8.40;99.90
8338;DHT22;4206;48.634;9.516;2023-03-08T10:39:07;8.50;99.90
8338;DHT22;4206;48.634;9.516;2023-03-08T10:41:41;8.50;99.90
8338;DHT22;4206;48.634;9.516;2023-03-08T10:44:26;8.60;99.90
8338;DHT22;4206;48.634;9.516;2023-03-08T10:46:54;8.80;99.90
8338;DHT22;4206;48.634;9.516;2023-03-08T10:49:22;8.80;99.90
8338;DHT22;4206;48.634;9.516;2023-03-08T10:51:56;8.90;99.90
8338;DHT22;4206;48.634;9.516;2023-03-08T10:54:25;9.00;99.90
8338;DHT22;4206;48.634;9.516;2023-03-08T10:56:55;9.20;99.90
8338;DHT22;4206;48.634;9.516;2023-03-08T10:59:33;9.30;99.90
8338;DHT22;4206;48.634;9.516;2023-03-08T11:02:16;9.60;99.90
8338;DHT22;4206;48.634;9.516;2023-03-08T11:04:57;9.90;99.90
8338;DHT22;4206;48.634;9.516;2023-03-08T11:07:27;10.20;99.90
8338;DHT22;4206;48.634;9.516;2023-03-08T11:10:14;10.30;99.90
8338;DHT22;4206;48.634;9.516;2023-03-08T11:12:42;10.40;99.90
8338;DHT22;4206;48.634;9.516;2023-03-08T11:15:18;10.50;99.90
8338;DHT22;4206;48.634;9.516;2023-03-08T11:17:55;10.60;99.90
8338;DHT22;4206;48.634;9.516;2023-03-08T11:20:29;10.70;99.90
8338;DHT22;4206;48.634;9.516;2023-03-08T11:23:05;10.70;99.90
8338;DHT22;4206;48.634;9.516;2023-03-08T11:25:44;10.80;99.90
8338;DHT22;4206;48.634;9.516;2023-03-08T11:31:00;11.10;99.90
8338;DHT22;4206;48.634;9.516;2023-03-08T11:33:52;11.20;99.90
8338;DHT22;4206;48.634;9.516;2023-03-08T11:44:46;12.10;99.90
8338;DHT22;4206;48.634;9.516;2023-03-08T11:50:30;12.30;99.90
8338;DHT22;4206;48.634;9.516;2023-03-08T11:58:22;13.30;99.90
8338;DHT22;4206;48.634;9.516;2023-03-08T12:00:55;13.30;99.90
8338;DHT22;4206;48.634;9.516;2023-03-08T12:03:30;13.20;99.90
8338;DHT22;4206;48.634;9.516;2023-03-08T12:06:03;13.20;99.90
8338;DHT22;4206;48.634;9.516;2023-03-08T12:08:43;13.10;99.90
8338;DHT22;4206;48.634;9.516;2023-03-08T12:11:18;13.20;99.90
8338;DHT22;4206;48.634;9.516;2023-03-08T12:13:51;13.00;99.90
8338;DHT22;4206;48.634;9.516;2023-03-08T12:16:24;12.90;99.90
8338;DHT22;4206;48.634;9.516;2023-03-08T12:19:13;12.80;99.90
8338;DHT22;4206;48.634;9.516;2023-03-08T12:24:37;12.80;99.90
8338;DHT22;4206;48.634;9.516;2023-03-08T12:27:15;12.70;99.90
8338;DHT22;4206;48.634;9.516;2023-03-08T12:29:53;12.70;99.90
8338;DHT22;4206;48.634;9.516;2023-03-08T12:32:21;12.80;99.90
8338;DHT22;4206;48.634;9.516;2023-03-08T12:35:23;12.90;99.90
8338;DHT22;4206;48.634;9.516;2023-03-08T12:37:56;13.00;99.90
8338;DHT22;4206;48.634;9.516;2023-03-08T12:45:38;13.30;99.90
8338;DHT22;4206;48.634;9.516;2023-03-08T12:48:07;13.60;99.90
8338;DHT22;4206;48.634;9.516;2023-03-08T12:51:00;14.00;99.90
8338;DHT22;4206;48.634;9.516;2023-03-08T12:53:33;14.10;99.90
8338;DHT22;4206;48.634;9.516;2023-03-08T12:56:05;13.90;99.90
8338;DHT22;4206;48.634;9.516;2023-03-08T12:58:35;14.00;99.90
8338;DHT22;4206;48.634;9.516;2023-03-08T13:01:06;13.90;99.90
8338;DHT22;4206;48.634;9.516;2023-03-08T13:03:39;13.90;99.90
8338;DHT22;4206;48.634;9.516;2023-03-08T13:08:49;13.60;99.90
8338;DHT22;4206;48.634;9.516;2023-03-08T13:11:18;13.60;99.90
8338;DHT22;4206;48.634;9.516;2023-03-08T13:18:43;13.30;99.90
8338;DHT22;4206;48.634;9.516;2023-03-08T13:23:45;13.40;99.90
8338;DHT22;4206;48.634;9.516;2023-03-08T13:26:26;13.50;99.90
8338;DHT22;4206;48.634;9.516;2023-03-08T13:29:16;13.40;99.90
8338;DHT22;4206;48.634;9.516;2023-03-08T13:31:44;13.50;99.90
8338;DHT22;4206;48.634;9.516;2023-03-08T13:34:29;13.50;99.90
8338;DHT22;4206;48.634;9.516;2023-03-08T13:36:57;13.40;99.90
8338;DHT22;4206;48.634;9.516;2023-03-08T13:39:26;13.30;99.90
8338;DHT22;4206;48.634;9.516;2023-03-08T13:42:04;13.30;99.90
8338;DHT22;4206;48.634;9.516;2023-03-08T13:44:31;13.20;99.90
8338;DHT22;4206;48.634;9.516;2023-03-08T13:47:02;13.10;99.90
8338;DHT22;4206;48.634;9.516;2023-03-08T13:49:31;13.00;99.90
8338;DHT22;4206;48.634;9.516;2023-03-08T13:52:02;13.10;99.90
8338;DHT22;4206;48.634;9.516;2023-03-08T13:54:34;13.00;99.90
8338;DHT22;4206;48.634;9.516;2023-03-08T13:57:05;13.10;99.90
8338;DHT22;4206;48.634;9.516;2023-03-08T13:59:32;13.00;99.90
8338;DHT22;4206;48.634;9.516;2023-03-08T14:02:01;13.00;99.90
8338;DHT22;4206;48.634;9.516;2023-03-08T14:04:28;13.00;99.90
8338;DHT22;4206;48.634;9.516;2023-03-08T14:06:58;13.00;99.90
8338;DHT22;4206;48.634;9.516;2023-03-08T14:09:26;12.90;99.90
8338;DHT22;4206;48.634;9.516;2023-03-08T14:11:56;12.90;99.90
8338;DHT22;4206;48.634;9.516;2023-03-08T14:14:28;12.90;99.90
8338;DHT22;4206;48.634;9.516;2023-03-08T14:16:56;13.00;99.90
8338;DHT22;4206;48.634;9.516;2023-03-08T14:19:27;13.00;99.90
8338;DHT22;4206;48.634;9.516;2023-03-08T14:21:59;13.10;99.90
8338;DHT22;4206;48.634;9.516;2023-03-08T14:24:30;13.20;99.90
8338;DHT22;4206;48.634;9.516;2023-03-08T14:27:02;13.10;99.90
8338;DHT22;4206;48.634;9.516;2023-03-08T14:29:32;13.20;99.90
8338;DHT22;4206;48.634;9.516;2023-03-08T14:34:45;13.20;99.90
8338;DHT22;4206;48.634;9.516;2023-03-08T14:37:29;13.20;99.90
8338;DHT22;4206;48.634;9.516;2023-03-08T14:42:55;13.20;99.90
8338;DHT22;4206;48.634;9.516;2023-03-08T14:45:26;13.20;99.90
8338;DHT22;4206;48.634;9.516;2023-03-08T14:47:56;13.20;99.90
8338;DHT22;4206;48.634;9.516;2023-03-08T14:50:27;13.10;99.90
8338;DHT22;4206;48.634;9.516;2023-03-08T14:52:57;13.00;99.90
8338;DHT22;4206;48.634;9.516;2023-03-08T14:57:56;13.10;99.90
8338;DHT22;4206;48.634;9.516;2023-03-08T15:00:24;13.20;99.90
8338;DHT22;4206;48.634;9.516;2023-03-08T15:02:55;13.40;99.90
8338;DHT22;4206;48.634;9.516;2023-03-08T15:05:23;13.40;99.90
8338;DHT22;4206;48.634;9.516;2023-03-08T15:07:56;13.20;99.90
8338;DHT22;4206;48.634;9.516;2023-03-08T15:10:34;13.50;99.90
8338;DHT22;4206;48.634;9.516;2023-03-08T15:13:04;13.70;99.90
8338;DHT22;4206;48.634;9.516;2023-03-08T15:15:31;13.70;99.90
8338;DHT22;4206;48.634;9.516;2023-03-08T15:17:58;13.40;99.90
8338;DHT22;4206;48.634;9.516;2023-03-08T15:20:25;13.30;99.90
8338;DHT22;4206;48.634;9.516;2023-03-08T15:22:54;13.20;99.90
8338;DHT22;4206;48.634;9.516;2023-03-08T15:25:28;13.30;99.90
8338;DHT22;4206;48.634;9.516;2023-03-08T15:27:56;13.40;99.90
8338;DHT22;4206;48.634;9.516;2023-03-08T15:30:25;13.40;99.90
8338;DHT22;4206;48.634;9.516;2023-03-08T15:32:53;13.30;99.90
8338;DHT22;4206;48.634;9.516;2023-03-08T15:35:21;13.30;99.90
8338;DHT22;4206;48.634;9.516;2023-03-08T15:37:48;13.30;99.90
8338;DHT22;4206;48.634;9.516;2023-03-08T15:40:18;13.20;99.90
8338;DHT22;4206;48.634;9.516;2023-03-08T15:42:46;13.10;99.90
8338;DHT22;4206;48.634;9.516;2023-03-08T15:45:13;13.10;99.90
8338;DHT22;4206;48.634;9.516;2023-03-08T15:47:41;13.10;99.90
8338;DHT22;4206;48.634;9.516;2023-03-08T15:50:16;13.10;99.90
8338;DHT22;4206;48.634;9.516;2023-03-08T15:52:44;13.10;99.90
8338;DHT22;4206;48.634;9.516;2023-03-08T15:55:12;13.00;99.90
8338;DHT22;4206;48.634;9.516;2023-03-08T15:57:40;13.00;99.90
8338;DHT22;4206;48.634;9.516;2023-03-08T16:00:09;12.90;99.90
8338;DHT22;4206;48.634;9.516;2023-03-08T16:02:38;13.00;99.90
8338;DHT22;4206;48.634;9.516;2023-03-08T16:05:06;12.90;99.90
8338;DHT22;4206;48.634;9.516;2023-03-08T16:07:34;12.90;99.90
8338;DHT22;4206;48.634;9.516;2023-03-08T16:10:02;12.80;99.90
8338;DHT22;4206;48.634;9.516;2023-03-08T16:12:29;12.80;99.90
8338;DHT22;4206;48.634;9.516;2023-03-08T16:14:56;12.90;99.90
8338;DHT22;4206;48.634;9.516;2023-03-08T16:17:24;12.80;99.90
8338;DHT22;4206;48.634;9.516;2023-03-08T16:19:52;12.80;99.90
8338;DHT22;4206;48.634;9.516;2023-03-08T16:22:19;12.80;99.90
8338;DHT22;4206;48.634;9.516;2023-03-08T16:24:46;12.70;99.90
8338;DHT22;4206;48.634;9.516;2023-03-08T16:27:13;12.70;99.90
8338;DHT22;4206;48.634;9.516;2023-03-08T16:29:40;12.70;99.90
8338;DHT22;4206;48.634;9.516;2023-03-08T16:32:07;12.70;99.90
8338;DHT22;4206;48.634;9.516;2023-03-08T16:34:34;12.70;99.90
8338;DHT22;4206;48.634;9.516;2023-03-08T16:37:01;12.70;99.90
8338;DHT22;4206;48.634;9.516;2023-03-08T16:39:27;12.60;99.90
8338;DHT22;4206;48.634;9.516;2023-03-08T16:41:55;12.60;99.90
8338;DHT22;4206;48.634;9.516;2023-03-08T16:44:24;12.50;99.90
8338;DHT22;4206;48.634;9.516;2023-03-08T16:46:51;12.40;99.90
8338;DHT22;4206;48.634;9.516;2023-03-08T16:49:19;12.30;99.90
8338;DHT22;4206;48.634;9.516;2023-03-08T16:51:46;12.30;99.90
8338;DHT22;4206;48.634;9.516;2023-03-08T16:54:15;11.90;99.90
8338;DHT22;4206;48.634;9.516;2023-03-08T16:56:43;11.70;99.90
8338;DHT22;4206;48.634;9.516;2023-03-08T16:59:11;11.60;99.90
8338;DHT22;4206;48.634;9.516;2023-03-08T17:01:40;11.50;99.90
8338;DHT22;4206;48.634;9.516;2023-03-08T17:04:09;11.50;99.90
8338;DHT22;4206;48.634;9.516;2023-03-08T17:06:37;11.40;99.90
8338;DHT22;4206;48.634;9.516;2023-03-08T17:09:05;11.40;99.90
8338;DHT22;4206;48.634;9.516;2023-03-08T17:11:33;11.30;99.90
8338;DHT22;4206;48.634;9.516;2023-03-08T17:14:04;11.20;99.90
8338;DHT22;4206;48.634;9.516;2023-03-08T17:16:32;11.20;99.90
8338;DHT22;4206;48.634;9.516;2023-03-08T17:19:00;11.10;99.90
8338;DHT22;4206;48.634;9.516;2023-03-08T17:21:29;11.10;99.90
8338;DHT22;4206;48.634;9.516;2023-03-08T17:23:58;11.20;99.90
8338;DHT22;4206;48.634;9.516;2023-03-08T17:26:25;11.30;99.90
8338;DHT22;4206;48.634;9.516;2023-03-08T17:28:53;11.30;99.90
8338;DHT22;4206;48.634;9.516;2023-03-08T17:31:21;11.30;99.90
8338;DHT22;4206;48.634;9.516;2023-03-08T17:33:49;11.30;99.90
8338;DHT22;4206;48.634;9.516;2023-03-08T17:36:16;11.40;99.90
8338;DHT22;4206;48.634;9.516;2023-03-08T17:38:43;11.40;99.90
8338;DHT22;4206;48.634;9.516;2023-03-08T17:41:13;11.60;99.90
8338;DHT22;4206;48.634;9.516;2023-03-08T17:43:40;11.80;99.90
8338;DHT22;4206;48.634;9.516;2023-03-08T17:46:11;11.90;99.90
8338;DHT22;4206;48.634;9.516;2023-03-08T17:48:38;11.90;99.90
8338;DHT22;4206;48.634;9.516;2023-03-08T17:51:10;11.90;99.90
8338;DHT22;4206;48.634;9.516;2023-03-08T17:53:38;11.90;99.90
8338;DHT22;4206;48.634;9.516;2023-03-08T17:56:07;11.90;99.90
8338;DHT22;4206;48.634;9.516;2023-03-08T17:58:34;11.80;99.90
8338;DHT22;4206;48.634;9.516;2023-03-08T18:01:10;11.80;99.90
8338;DHT22;4206;48.634;9.516;2023-03-08T18:03:37;11.90;99.90
8338;DHT22;4206;48.634;9.516;2023-03-08T18:06:05;11.80;99.90
8338;DHT22;4206;48.634;9.516;2023-03-08T18:08:32;11.80;99.90
8338;DHT22;4206;48.634;9.516;2023-03-08T18:11:00;12.00;99.90
8338;DHT22;4206;48.634;9.516;2023-03-08T18:13:27;11.90;99.90
8338;DHT22;4206;48.634;9.516;2023-03-08T18:15:54;11.90;99.90
8338;DHT22;4206;48.634;9.516;2023-03-08T18:18:21;11.80;99.90
8338;DHT22;4206;48.634;9.516;2023-03-08T18:20:47;11.80;99.90
8338;DHT22;4206;48.634;9.516;2023-03-08T18:23:14;11.80;99.90
8338;DHT22;4206;48.634;9.516;2023-03-08T18:25:41;11.80;99.90
8338;DHT22;4206;48.634;9.516;2023-03-08T18:28:08;11.90;99.90
8338;DHT22;4206;48.634;9.516;2023-03-08T18:30:36;11.90;99.90
8338;DHT22;4206;48.634;9.516;2023-03-08T18:33:03;11.90;99.90